sensor_id;sensor_type;location;lat;lon;timestamp;pressure;altitude;pressure_sealevel;temperature;humidity
65394;BME280;52002;49.760;6.512;2022-11-20T00:01:33;99438.67;;;20.72;54.04
65394;BME280;52002;49.760;6.512;2022-11-20T00:03:59;99429.92;;;20.70;54.10
65394;BME280;52002;49.760;6.512;2022-11-20T00:06:27;99437.44;;;20.68;54.13
65394;BME280;52002;49.760;6.512;2022-11-20T00:08:55;99433.06;;;20.67;54.17
65394;BME280;52002;49.760;6.512;2022-11-20T00:11:24;99430.35;;;20.67;54.20
65394;BME280;52002;49.760;6.512;2022-11-20T00:13:53;99436.86;;;20.66;54.25
65394;BME280;52002;49.760;6.512;2022-11-20T00:16:24;99430.50;;;20.63;54.29
65394;BME280;52002;49.760;6.512;2022-11-20T00:18:52;99432.91;;;20.62;54.30
65394;BME280;52002;49.760;6.512;2022-11-20T00:21:21;99434.27;;;20.62;54.32
65394;BME280;52002;49.760;6.512;2022-11-20T00:23:51;99428.53;;;20.61;54.34
65394;BME280;52002;49.760;6.512;2022-11-20T00:26:20;99427.91;;;20.59;54.38
65394;BME280;52002;49.760;6.512;2022-11-20T00:28:56;99425.12;;;20.56;54.40
65394;BME280;52002;49.760;6.512;2022-11-20T00:31:23;99436.78;;;20.57;54.43
65394;BME280;52002;49.760;6.512;2022-11-20T00:33:49;99441.16;;;20.58;54.47
65394;BME280;52002;49.760;6.512;2022-11-20T00:36:18;99440.54;;;20.56;54.45
65394;BME280;52002;49.760;6.512;2022-11-20T00:38:53;99425.86;;;20.54;54.47
65394;BME280;52002;49.760;6.512;2022-11-20T00:41:20;99423.66;;;20.54;54.50
65394;BME280;52002;49.760;6.512;2022-11-20T00:43:47;99423.88;;;20.52;54.56
65394;BME280;52002;49.760;6.512;2022-11-20T00:46:19;99426.28;;;20.51;54.55
65394;BME280;52002;49.760;6.512;2022-11-20T00:48:47;99429.19;;;20.50;54.58
65394;BME280;52002;49.760;6.512;2022-11-20T00:51:16;99433.26;;;20.50;54.61
65394;BME280;52002;49.760;6.512;2022-11-20T00:53:43;99426.70;;;20.48;54.62
65394;BME280;52002;49.760;6.512;2022-11-20T00:56:12;99422.87;;;20.46;54.65
65394;BME280;52002;49.760;6.512;2022-11-20T00:58:42;99420.67;;;20.46;54.68
65394;BME280;52002;49.760;6.512;2022-11-20T01:01:11;99425.58;;;20.46;54.67
65394;BME280;52002;49.760;6.512;2022-11-20T01:03:44;99429.11;;;20.47;54.68
65394;BME280;52002;49.760;6.512;2022-11-20T01:06:20;99427.13;;;20.45;54.72
65394;BME280;52002;49.760;6.512;2022-11-20T01:08:49;99430.08;;;20.43;54.71
65394;BME280;52002;49.760;6.512;2022-11-20T01:11:22;99428.72;;;20.43;54.78
65394;BME280;52002;49.760;6.512;2022-11-20T01:13:50;99435.19;;;20.42;54.78
65394;BME280;52002;49.760;6.512;2022-11-20T01:16:23;99433.83;;;20.42;54.78
65394;BME280;52002;49.760;6.512;2022-11-20T01:18:53;99439.48;;;20.41;54.79
65394;BME280;52002;49.760;6.512;2022-11-20T01:21:22;99433.29;;;20.43;54.80
65394;BME280;52002;49.760;6.512;2022-11-20T01:23:51;99441.42;;;20.43;54.85
65394;BME280;52002;49.760;6.512;2022-11-20T01:26:19;99435.19;;;20.42;54.82
65394;BME280;52002;49.760;6.512;2022-11-20T01:28:47;99425.70;;;20.42;54.82
65394;BME280;52002;49.760;6.512;2022-11-20T01:31:20;99424.03;;;20.41;54.84
65394;BME280;52002;49.760;6.512;2022-11-20T01:33:51;99427.05;;;20.42;54.86
65394;BME280;52002;49.760;6.512;2022-11-20T01:36:20;99428.09;;;20.41;54.86
65394;BME280;52002;49.760;6.512;2022-11-20T01:38:51;99428.48;;;20.45;54.87
65394;BME280;52002;49.760;6.512;2022-11-20T01:41:19;99429.65;;;20.46;54.85
65394;BME280;52002;49.760;6.512;2022-11-20T01:44:04;99427.98;;;20.45;54.87
65394;BME280;52002;49.760;6.512;2022-11-20T01:46:32;99429.53;;;20.44;54.85
65394;BME280;52002;49.760;6.512;2022-11-20T01:51:42;99428.18;;;20.44;54.90
65394;BME280;52002;49.760;6.512;2022-11-20T01:54:12;99433.09;;;20.44;54.91
65394;BME280;52002;49.760;6.512;2022-11-20T01:56:48;99430.08;;;20.43;54.92
65394;BME280;52002;49.760;6.512;2022-11-20T01:59:18;99427.67;;;20.44;54.96
65394;BME280;52002;49.760;6.512;2022-11-20T02:01:45;99426.31;;;20.44;54.97
65394;BME280;52002;49.760;6.512;2022-11-20T02:04:12;99431.52;;;20.23;52.09
65394;BME280;52002;49.760;6.512;2022-11-20T02:06:42;99439.34;;;19.39;50.02
65394;BME280;52002;49.760;6.512;2022-11-20T02:09:14;99439.31;;;18.68;49.96
65394;BME280;52002;49.760;6.512;2022-11-20T02:11:41;99436.63;;;17.84;50.05
65394;BME280;52002;49.760;6.512;2022-11-20T02:14:07;99432.48;;;17.53;50.94
65394;BME280;52002;49.760;6.512;2022-11-20T02:16:40;99438.38;;;17.24;51.02
65394;BME280;52002;49.760;6.512;2022-11-20T02:19:14;99437.53;;;16.91;51.33
65394;BME280;52002;49.760;6.512;2022-11-20T02:22:02;99435.50;;;16.67;51.68
65394;BME280;52002;49.760;6.512;2022-11-20T02:24:32;99422.89;;;16.42;51.87
65394;BME280;52002;49.760;6.512;2022-11-20T02:27:10;99414.03;;;16.37;52.78
65394;BME280;52002;49.760;6.512;2022-11-20T02:34:48;99419.32;;;17.71;53.63
65394;BME280;52002;49.760;6.512;2022-11-20T02:37:14;99420.91;;;18.12;53.65
65394;BME280;52002;49.760;6.512;2022-11-20T02:39:42;99418.26;;;18.43;53.56
65394;BME280;52002;49.760;6.512;2022-11-20T02:42:09;99418.11;;;18.71;53.46
65394;BME280;52002;49.760;6.512;2022-11-20T02:44:35;99416.75;;;18.95;53.33
65394;BME280;52002;49.760;6.512;2022-11-20T02:47:01;99413.42;;;19.14;53.16
65394;BME280;52002;49.760;6.512;2022-11-20T02:49:27;99419.46;;;19.29;52.99
65394;BME280;52002;49.760;6.512;2022-11-20T02:54:31;99414.14;;;19.59;52.68
65394;BME280;52002;49.760;6.512;2022-11-20T02:56:57;99424.42;;;19.66;52.57
65394;BME280;52002;49.760;6.512;2022-11-20T02:59:23;99422.23;;;19.72;52.42
65394;BME280;52002;49.760;6.512;2022-11-20T03:01:49;99424.42;;;19.79;52.33
65394;BME280;52002;49.760;6.512;2022-11-20T03:04:15;99413.26;;;19.85;52.28
65394;BME280;52002;49.760;6.512;2022-11-20T03:06:41;99418.38;;;19.91;52.18
65394;BME280;52002;49.760;6.512;2022-11-20T03:09:07;99412.85;;;19.95;52.14
65394;BME280;52002;49.760;6.512;2022-11-20T03:11:33;99410.62;;;20.01;52.02
65394;BME280;52002;49.760;6.512;2022-11-20T03:14:02;99404.47;;;20.03;52.06
65394;BME280;52002;49.760;6.512;2022-11-20T03:16:30;99400.61;;;20.08;51.96
65394;BME280;52002;49.760;6.512;2022-11-20T03:18:57;99404.56;;;20.12;51.93
65394;BME280;52002;49.760;6.512;2022-11-20T03:21:22;99401.40;;;20.15;51.92
65394;BME280;52002;49.760;6.512;2022-11-20T03:23:48;99402.33;;;20.19;51.93
65394;BME280;52002;49.760;6.512;2022-11-20T03:26:17;99399.42;;;20.20;51.89
65394;BME280;52002;49.760;6.512;2022-11-20T03:28:49;99398.46;;;20.24;51.89
65394;BME280;52002;49.760;6.512;2022-11-20T03:31:23;99390.33;;;20.24;51.90
65394;BME280;52002;49.760;6.512;2022-11-20T03:33:51;99392.00;;;20.25;51.89
65394;BME280;52002;49.760;6.512;2022-11-20T03:36:19;99394.70;;;20.25;51.97
65394;BME280;52002;49.760;6.512;2022-11-20T03:38:46;99393.66;;;20.26;52.03
65394;BME280;52002;49.760;6.512;2022-11-20T03:41:16;99396.99;;;20.28;52.08
65394;BME280;52002;49.760;6.512;2022-11-20T03:43:53;99387.50;;;20.28;52.08
65394;BME280;52002;49.760;6.512;2022-11-20T03:46:16;99386.15;;;20.28;52.11
65394;BME280;52002;49.760;6.512;2022-11-20T03:48:42;99384.26;;;20.28;52.10
65394;BME280;52002;49.760;6.512;2022-11-20T03:51:17;99383.75;;;20.29;52.11
65394;BME280;52002;49.760;6.512;2022-11-20T03:53:46;99388.63;;;20.29;52.14
65394;BME280;52002;49.760;6.512;2022-11-20T03:56:13;99396.26;;;20.30;52.16
65394;BME280;52002;49.760;6.512;2022-11-20T03:58:42;99388.33;;;20.28;52.15
65394;BME280;52002;49.760;6.512;2022-11-20T04:01:11;99388.12;;;20.30;52.17
65394;BME280;52002;49.760;6.512;2022-11-20T04:03:41;99394.91;;;20.30;52.20
65394;BME280;52002;49.760;6.512;2022-11-20T04:06:10;99390.10;;;20.32;52.20
65394;BME280;52002;49.760;6.512;2022-11-20T04:08:39;99383.60;;;20.33;52.22
65394;BME280;52002;49.760;6.512;2022-11-20T04:11:11;99398.00;;;20.34;52.26
65394;BME280;52002;49.760;6.512;2022-11-20T04:13:39;99395.80;;;20.33;52.28
65394;BME280;52002;49.760;6.512;2022-11-20T04:16:07;99395.91;;;20.36;52.27
65394;BME280;52002;49.760;6.512;2022-11-20T04:18:35;99399.98;;;20.36;52.30
65394;BME280;52002;49.760;6.512;2022-11-20T04:21:02;99399.13;;;20.35;52.31
65394;BME280;52002;49.760;6.512;2022-11-20T04:23:29;99389.64;;;20.35;52.34
65394;BME280;52002;49.760;6.512;2022-11-20T04:26:01;99387.78;;;20.36;52.31
65394;BME280;52002;49.760;6.512;2022-11-20T04:28:29;99395.69;;;20.37;52.33
65394;BME280;52002;49.760;6.512;2022-11-20T04:31:06;99392.97;;;20.37;52.38
65394;BME280;52002;49.760;6.512;2022-11-20T04:33:35;99394.95;;;20.39;52.37
65394;BME280;52002;49.760;6.512;2022-11-20T04:36:07;99390.14;;;20.41;52.38
65394;BME280;52002;49.760;6.512;2022-11-20T04:38:42;99397.55;;;20.43;52.38
65394;BME280;52002;49.760;6.512;2022-11-20T04:41:20;99393.25;;;20.45;52.40
65394;BME280;52002;49.760;6.512;2022-11-20T04:43:47;99402.31;;;20.48;52.41
65394;BME280;52002;49.760;6.512;2022-11-20T04:46:16;99401.26;;;20.49;52.43
65394;BME280;52002;49.760;6.512;2022-11-20T04:48:43;99403.00;;;20.53;52.45
65394;BME280;52002;49.760;6.512;2022-11-20T04:51:09;99402.58;;;20.56;52.45
65394;BME280;52002;49.760;6.512;2022-11-20T04:53:36;99404.32;;;20.59;52.44
65394;BME280;52002;49.760;6.512;2022-11-20T04:56:03;99400.36;;;20.62;52.42
65394;BME280;52002;49.760;6.512;2022-11-20T04:58:31;99399.63;;;20.64;52.41
65394;BME280;52002;49.760;6.512;2022-11-20T05:03:34;99400.09;;;20.70;52.42
65394;BME280;52002;49.760;6.512;2022-11-20T05:06:04;99399.66;;;20.73;52.38
65394;BME280;52002;49.760;6.512;2022-11-20T05:08:31;99398.95;;;20.75;52.38
65394;BME280;52002;49.760;6.512;2022-11-20T05:11:07;99402.36;;;20.80;52.35
65394;BME280;52002;49.760;6.512;2022-11-20T05:13:35;99401.62;;;20.82;52.35
65394;BME280;52002;49.760;6.512;2022-11-20T05:16:14;99403.36;;;20.86;52.33
65394;BME280;52002;49.760;6.512;2022-11-20T05:18:40;99402.42;;;20.89;52.34
65394;BME280;52002;49.760;6.512;2022-11-20T05:21:08;99403.31;;;20.92;52.32
65394;BME280;52002;49.760;6.512;2022-11-20T05:23:35;99399.34;;;20.95;52.31
65394;BME280;52002;49.760;6.512;2022-11-20T05:26:02;99400.58;;;20.99;52.29
65394;BME280;52002;49.760;6.512;2022-11-20T05:28:30;99404.18;;;21.02;52.27
65394;BME280;52002;49.760;6.512;2022-11-20T05:31:04;99408.56;;;21.03;52.25
65394;BME280;52002;49.760;6.512;2022-11-20T05:33:34;99412.19;;;21.06;52.24
65394;BME280;52002;49.760;6.512;2022-11-20T05:36:01;99411.45;;;21.08;52.22
65394;BME280;52002;49.760;6.512;2022-11-20T05:38:28;99413.42;;;21.11;52.17
65394;BME280;52002;49.760;6.512;2022-11-20T05:40:55;99419.47;;;21.13;52.16
65394;BME280;52002;49.760;6.512;2022-11-20T05:43:23;99412.14;;;21.13;52.18
65394;BME280;52002;49.760;6.512;2022-11-20T05:45:53;99414.66;;;21.15;52.14
65394;BME280;52002;49.760;6.512;2022-11-20T05:48:20;99421.44;;;21.15;52.14
65394;BME280;52002;49.760;6.512;2022-11-20T05:50:47;99422.80;;;21.15;52.14
65394;BME280;52002;49.760;6.512;2022-11-20T05:53:13;99424.66;;;21.14;52.14
65394;BME280;52002;49.760;6.512;2022-11-20T05:55:39;99422.48;;;21.14;52.18
65394;BME280;52002;49.760;6.512;2022-11-20T05:58:05;99423.84;;;21.14;52.18
65394;BME280;52002;49.760;6.512;2022-11-20T06:00:31;99420.08;;;21.15;52.16
65394;BME280;52002;49.760;6.512;2022-11-20T06:02:56;99418.92;;;21.13;52.19
65394;BME280;52002;49.760;6.512;2022-11-20T06:05:22;99416.44;;;21.12;52.21
65394;BME280;52002;49.760;6.512;2022-11-20T06:07:48;99417.50;;;21.11;52.24
65394;BME280;52002;49.760;6.512;2022-11-20T06:10:14;99411.76;;;21.10;52.27
65394;BME280;52002;49.760;6.512;2022-11-20T06:12:40;99410.09;;;21.08;52.25
65394;BME280;52002;49.760;6.512;2022-11-20T06:15:07;99413.34;;;21.08;52.26
65394;BME280;52002;49.760;6.512;2022-11-20T06:17:34;99415.22;;;21.07;52.28
65394;BME280;52002;49.760;6.512;2022-11-20T06:19:59;99409.78;;;21.07;52.29
65394;BME280;52002;49.760;6.512;2022-11-20T06:22:25;99407.81;;;21.05;52.30
65394;BME280;52002;49.760;6.512;2022-11-20T06:24:51;99404.80;;;21.04;52.33
65394;BME280;52002;49.760;6.512;2022-11-20T06:27:17;99400.42;;;21.03;52.35
65394;BME280;52002;49.760;6.512;2022-11-20T06:29:43;99395.73;;;21.01;52.38
65394;BME280;52002;49.760;6.512;2022-11-20T06:32:09;99406.59;;;21.01;52.38
65394;BME280;52002;49.760;6.512;2022-11-20T06:34:35;99407.66;;;21.00;52.39
65394;BME280;52002;49.760;6.512;2022-11-20T06:37:01;99409.77;;;20.98;52.42
65394;BME280;52002;49.760;6.512;2022-11-20T06:39:27;99410.27;;;20.98;52.44
65394;BME280;52002;49.760;6.512;2022-11-20T06:41:53;99420.63;;;20.98;52.46
65394;BME280;52002;49.760;6.512;2022-11-20T06:44:19;99417.59;;;20.97;52.46
65394;BME280;52002;49.760;6.512;2022-11-20T06:46:44;99428.95;;;20.97;52.47
65394;BME280;52002;49.760;6.512;2022-11-20T06:49:10;99421.56;;;20.95;52.54
65394;BME280;52002;49.760;6.512;2022-11-20T06:51:36;99425.43;;;20.96;52.54
65394;BME280;52002;49.760;6.512;2022-11-20T06:54:02;99433.88;;;20.97;52.55
65394;BME280;52002;49.760;6.512;2022-11-20T06:56:28;99435.23;;;20.97;52.60
65394;BME280;52002;49.760;6.512;2022-11-20T06:58:54;99437.72;;;20.99;52.62
65394;BME280;52002;49.760;6.512;2022-11-20T07:01:19;99437.20;;;20.99;52.61
65394;BME280;52002;49.760;6.512;2022-11-20T07:03:48;99439.69;;;21.01;52.64
65394;BME280;52002;49.760;6.512;2022-11-20T07:06:16;99433.52;;;21.03;52.62
65394;BME280;52002;49.760;6.512;2022-11-20T07:08:42;99428.91;;;21.03;52.62
65394;BME280;52002;49.760;6.512;2022-11-20T07:11:08;99428.17;;;21.05;52.63
65394;BME280;52002;49.760;6.512;2022-11-20T07:13:38;99441.61;;;21.10;52.61
65394;BME280;52002;49.760;6.512;2022-11-20T07:16:06;99446.30;;;21.12;52.63
65394;BME280;52002;49.760;6.512;2022-11-20T07:18:33;99453.70;;;21.14;52.61
65394;BME280;52002;49.760;6.512;2022-11-20T07:21:01;99450.75;;;21.15;52.61
65394;BME280;52002;49.760;6.512;2022-11-20T07:23:31;99457.10;;;21.18;52.60
65394;BME280;52002;49.760;6.512;2022-11-20T07:25:57;99460.94;;;21.20;52.59
65394;BME280;52002;49.760;6.512;2022-11-20T07:28:24;99456.44;;;21.23;52.57
65394;BME280;52002;49.760;6.512;2022-11-20T07:30:51;99463.02;;;21.25;52.56
65394;BME280;52002;49.760;6.512;2022-11-20T07:33:18;99460.37;;;21.27;52.55
65394;BME280;52002;49.760;6.512;2022-11-20T07:35:44;99466.12;;;21.28;52.51
65394;BME280;52002;49.760;6.512;2022-11-20T07:38:10;99469.45;;;21.30;52.48
65394;BME280;52002;49.760;6.512;2022-11-20T07:40:36;99467.24;;;21.30;52.47
65394;BME280;52002;49.760;6.512;2022-11-20T07:43:02;99466.73;;;21.30;52.46
65394;BME280;52002;49.760;6.512;2022-11-20T07:45:28;99461.30;;;21.30;52.48
65394;BME280;52002;49.760;6.512;2022-11-20T07:47:54;99465.68;;;21.31;52.46
65394;BME280;52002;49.760;6.512;2022-11-20T07:50:20;99461.30;;;21.30;52.45
65394;BME280;52002;49.760;6.512;2022-11-20T07:52:46;99466.19;;;21.31;52.45
65394;BME280;52002;49.760;6.512;2022-11-20T07:55:13;99475.69;;;21.31;52.46
65394;BME280;52002;49.760;6.512;2022-11-20T07:57:39;99476.74;;;21.30;52.45
65394;BME280;52002;49.760;6.512;2022-11-20T08:00:07;99474.56;;;21.29;52.42
65394;BME280;52002;49.760;6.512;2022-11-20T08:02:37;99473.72;;;21.29;52.46
65394;BME280;52002;49.760;6.512;2022-11-20T08:05:05;99476.97;;;21.28;52.45
65394;BME280;52002;49.760;6.512;2022-11-20T08:07:39;99485.12;;;21.28;52.44
65394;BME280;52002;49.760;6.512;2022-11-20T08:10:07;99485.63;;;21.28;52.47
65394;BME280;52002;49.760;6.512;2022-11-20T08:12:35;99485.05;;;21.26;52.48
65394;BME280;52002;49.760;6.512;2022-11-20T08:15:20;99487.95;;;21.24;52.52
65394;BME280;52002;49.760;6.512;2022-11-20T08:17:46;99493.70;;;21.25;52.52
65394;BME280;52002;49.760;6.512;2022-11-20T08:20:12;99494.74;;;21.24;52.52
65394;BME280;52002;49.760;6.512;2022-11-20T08:22:38;99494.44;;;21.23;52.54
65394;BME280;52002;49.760;6.512;2022-11-20T08:25:05;99495.80;;;21.23;52.53
65394;BME280;52002;49.760;6.512;2022-11-20T08:27:32;99498.94;;;21.20;52.56
65394;BME280;52002;49.760;6.512;2022-11-20T08:29:58;99502.50;;;21.20;52.55
65394;BME280;52002;49.760;6.512;2022-11-20T08:32:24;99501.34;;;21.19;52.59
65394;BME280;52002;49.760;6.512;2022-11-20T08:34:50;99499.41;;;21.17;52.60
65394;BME280;52002;49.760;6.512;2022-11-20T08:37:16;99496.69;;;21.17;52.61
65394;BME280;52002;49.760;6.512;2022-11-20T08:39:42;99499.91;;;21.16;52.63
65394;BME280;52002;49.760;6.512;2022-11-20T08:42:08;99495.03;;;21.16;52.68
65394;BME280;52002;49.760;6.512;2022-11-20T08:44:34;99498.55;;;21.16;52.68
65394;BME280;52002;49.760;6.512;2022-11-20T08:47:00;99498.36;;;21.18;52.68
65394;BME280;52002;49.760;6.512;2022-11-20T08:49:26;99499.79;;;21.20;52.68
65394;BME280;52002;49.760;6.512;2022-11-20T08:51:52;99503.32;;;21.21;52.69
65394;BME280;52002;49.760;6.512;2022-11-20T08:54:20;99498.31;;;20.86;49.73
65394;BME280;52002;49.760;6.512;2022-11-20T08:56:48;99503.32;;;20.30;48.33
65394;BME280;52002;49.760;6.512;2022-11-20T08:59:14;99501.22;;;19.89;47.84
65394;BME280;52002;49.760;6.512;2022-11-20T09:01:39;99496.81;;;19.41;47.23
65394;BME280;52002;49.760;6.512;2022-11-20T09:04:05;99498.00;;;19.05;47.77
65394;BME280;52002;49.760;6.512;2022-11-20T09:06:31;99504.36;;;19.01;48.25
65394;BME280;52002;49.760;6.512;2022-11-20T09:08:57;99506.59;;;19.29;48.59
65394;BME280;52002;49.760;6.512;2022-11-20T09:11:23;99511.39;;;19.53;48.98
65394;BME280;52002;49.760;6.512;2022-11-20T09:13:49;99507.44;;;19.76;49.31
65394;BME280;52002;49.760;6.512;2022-11-20T09:16:15;99505.27;;;19.96;49.62
65394;BME280;52002;49.760;6.512;2022-11-20T09:18:41;99501.27;;;20.12;49.76
65394;BME280;52002;49.760;6.512;2022-11-20T09:21:09;99507.80;;;20.27;49.82
65394;BME280;52002;49.760;6.512;2022-11-20T09:23:37;99508.80;;;20.39;49.89
65394;BME280;52002;49.760;6.512;2022-11-20T09:26:06;99505.64;;;20.49;49.92
65394;BME280;52002;49.760;6.512;2022-11-20T09:28:34;99505.62;;;20.56;49.91
65394;BME280;52002;49.760;6.512;2022-11-20T09:31:00;99506.44;;;20.63;49.94
65394;BME280;52002;49.760;6.512;2022-11-20T09:33:28;99502.76;;;20.67;50.00
65394;BME280;52002;49.760;6.512;2022-11-20T09:35:54;99497.53;;;20.72;50.04
65394;BME280;52002;49.760;6.512;2022-11-20T09:38:20;99494.39;;;20.75;50.11
65394;BME280;52002;49.760;6.512;2022-11-20T09:41:04;99502.95;;;20.79;50.12
65394;BME280;52002;49.760;6.512;2022-11-20T09:46:32;99495.44;;;20.81;50.21
65394;BME280;52002;49.760;6.512;2022-11-20T09:49:19;99493.77;;;20.80;50.33
65394;BME280;52002;49.760;6.512;2022-11-20T09:52:22;99494.08;;;20.81;50.37
65394;BME280;52002;49.760;6.512;2022-11-20T09:54:50;99490.01;;;20.81;50.43
65394;BME280;52002;49.760;6.512;2022-11-20T09:57:20;99487.91;;;20.83;50.46
65394;BME280;52002;49.760;6.512;2022-11-20T10:00:00;99496.05;;;20.83;50.54
65394;BME280;52002;49.760;6.512;2022-11-20T10:05:18;99501.67;;;20.81;50.65
65394;BME280;52002;49.760;6.512;2022-11-20T10:08:01;99497.53;;;20.79;50.72
65394;BME280;52002;49.760;6.512;2022-11-20T10:10:33;99494.08;;;20.81;50.77
65394;BME280;52002;49.760;6.512;2022-11-20T10:28:56;99471.22;;;20.72;51.35
65394;BME280;52002;49.760;6.512;2022-11-20T10:30:40;99472.27;;;20.71;51.47
65394;BME280;52002;49.760;6.512;2022-11-20T10:33:22;99465.92;;;20.68;51.58
65394;BME280;52002;49.760;6.512;2022-11-20T10:36:21;99465.61;;;20.67;51.61
65394;BME280;52002;49.760;6.512;2022-11-20T10:39:01;99463.66;;;20.65;51.67
65394;BME280;52002;49.760;6.512;2022-11-20T10:41:32;99464.71;;;20.64;51.76
65394;BME280;52002;49.760;6.512;2022-11-20T10:47:12;99456.77;;;20.62;51.84
65394;BME280;52002;49.760;6.512;2022-11-20T10:49:51;99449.17;;;20.62;51.85
65394;BME280;52002;49.760;6.512;2022-11-20T11:01:15;99452.02;;;19.72;47.84
65394;BME280;52002;49.760;6.512;2022-11-20T11:03:41;99456.94;;;19.19;46.67
65394;BME280;52002;49.760;6.512;2022-11-20T11:06:34;99455.88;;;18.82;46.30
65394;BME280;52002;49.760;6.512;2022-11-20T11:09:16;99442.09;;;18.57;46.13
65394;BME280;52002;49.760;6.512;2022-11-20T11:11:44;99435.98;;;18.34;47.66
65394;BME280;52002;49.760;6.512;2022-11-20T11:14:15;99435.14;;;18.27;47.35
65394;BME280;52002;49.760;6.512;2022-11-20T11:19:18;99435.93;;;18.21;46.86
65394;BME280;52002;49.760;6.512;2022-11-20T11:21:53;99437.78;;;18.45;47.00
65394;BME280;52002;49.760;6.512;2022-11-20T11:24:28;99429.13;;;18.70;47.04
65394;BME280;52002;49.760;6.512;2022-11-20T11:27:00;99421.84;;;18.94;47.27
65394;BME280;52002;49.760;6.512;2022-11-20T11:29:30;99422.80;;;19.18;47.34
65394;BME280;52002;49.760;6.512;2022-11-20T11:32:14;99417.38;;;19.38;47.46
65394;BME280;52002;49.760;6.512;2022-11-20T11:34:43;99415.91;;;19.55;47.37
65394;BME280;52002;49.760;6.512;2022-11-20T11:37:18;99418.17;;;19.72;47.44
65394;BME280;52002;49.760;6.512;2022-11-20T11:39:47;99415.43;;;19.85;47.42
65394;BME280;52002;49.760;6.512;2022-11-20T11:42:17;99418.89;;;19.97;47.40
65394;BME280;52002;49.760;6.512;2022-11-20T11:44:45;99409.16;;;20.05;47.44
65394;BME280;52002;49.760;6.512;2022-11-20T11:47:44;99407.27;;;20.12;47.48
65394;BME280;52002;49.760;6.512;2022-11-20T11:50:26;99403.27;;;20.22;47.50
65394;BME280;52002;49.760;6.512;2022-11-20T11:53:15;99384.80;;;20.28;47.52
65394;BME280;52002;49.760;6.512;2022-11-20T11:55:49;99395.80;;;20.33;47.53
65394;BME280;52002;49.760;6.512;2022-11-20T12:04:20;99394.09;;;20.45;47.67
65394;BME280;52002;49.760;6.512;2022-11-20T12:06:51;99384.18;;;20.49;47.72
65394;BME280;52002;49.760;6.512;2022-11-20T12:09:23;99383.41;;;20.51;47.79
65394;BME280;52002;49.760;6.512;2022-11-20T12:12:17;99387.28;;;20.52;47.89
65394;BME280;52002;49.760;6.512;2022-11-20T12:14:46;99378.91;;;20.54;47.98
65394;BME280;52002;49.760;6.512;2022-11-20T12:17:15;99376.81;;;20.56;48.06
65394;BME280;52002;49.760;6.512;2022-11-20T12:19:43;99370.34;;;20.57;48.15
65394;BME280;52002;49.760;6.512;2022-11-20T12:25:22;99375.03;;;20.59;48.32
65394;BME280;52002;49.760;6.512;2022-11-20T12:28:12;99369.61;;;20.59;48.42
65394;BME280;52002;49.760;6.512;2022-11-20T12:45:10;99364.58;;;20.46;49.08
65394;BME280;52002;49.760;6.512;2022-11-20T12:56:53;99344.41;;;20.52;49.23
65394;BME280;52002;49.760;6.512;2022-11-20T13:08:34;99330.11;;;20.54;49.50
65394;BME280;52002;49.760;6.512;2022-11-20T13:11:18;99320.11;;;20.54;49.50
65394;BME280;52002;49.760;6.512;2022-11-20T13:17:04;99305.40;;;20.53;49.44
65394;BME280;52002;49.760;6.512;2022-11-20T13:19:33;99302.48;;;20.54;49.33
65394;BME280;52002;49.760;6.512;2022-11-20T13:22:00;99303.84;;;20.54;49.23
65394;BME280;52002;49.760;6.512;2022-11-20T13:24:29;99300.59;;;20.55;49.16
65394;BME280;52002;49.760;6.512;2022-11-20T13:29:46;99295.16;;;20.55;49.01
65394;BME280;52002;49.760;6.512;2022-11-20T13:32:18;99292.77;;;20.56;48.93
65394;BME280;52002;49.760;6.512;2022-11-20T13:34:59;99287.58;;;20.54;48.93
65394;BME280;52002;49.760;6.512;2022-11-20T13:37:31;99287.27;;;20.53;48.92
65394;BME280;52002;49.760;6.512;2022-11-20T13:42:55;99280.99;;;20.53;48.85
65394;BME280;52002;49.760;6.512;2022-11-20T13:45:26;99281.73;;;20.51;48.84
65394;BME280;52002;49.760;6.512;2022-11-20T13:47:55;99280.69;;;20.52;48.83
65394;BME280;52002;49.760;6.512;2022-11-20T13:50:30;99270.89;;;20.51;48.82
65394;BME280;52002;49.760;6.512;2022-11-20T13:55:54;99270.89;;;20.51;48.88
65394;BME280;52002;49.760;6.512;2022-11-20T13:58:44;99264.73;;;20.53;48.94
65394;BME280;52002;49.760;6.512;2022-11-20T14:01:26;99264.52;;;20.54;48.94
65394;BME280;52002;49.760;6.512;2022-11-20T14:03:56;99261.51;;;20.53;49.00
65394;BME280;52002;49.760;6.512;2022-11-20T14:06:28;99257.75;;;20.54;49.02
65394;BME280;52002;49.760;6.512;2022-11-20T14:08:57;99258.87;;;20.56;49.02
65394;BME280;52002;49.760;6.512;2022-11-20T14:11:27;99245.31;;;20.56;49.02
65394;BME280;52002;49.760;6.512;2022-11-20T14:16:33;99242.60;;;20.56;49.06
65394;BME280;52002;49.760;6.512;2022-11-20T14:22:06;99228.43;;;20.54;49.11
65394;BME280;52002;49.760;6.512;2022-11-20T14:24:36;99224.36;;;20.54;49.14
65394;BME280;52002;49.760;6.512;2022-11-20T14:27:02;99237.31;;;20.52;49.19
65394;BME280;52002;49.760;6.512;2022-11-20T14:29:33;99240.87;;;20.52;49.19
65394;BME280;52002;49.760;6.512;2022-11-20T14:32:00;99237.31;;;20.52;49.26
65394;BME280;52002;49.760;6.512;2022-11-20T14:34:29;99228.36;;;20.51;49.26
65394;BME280;52002;49.760;6.512;2022-11-20T14:36:59;99223.98;;;20.50;49.30
65394;BME280;52002;49.760;6.512;2022-11-20T14:39:34;99222.09;;;20.51;49.28
65394;BME280;52002;49.760;6.512;2022-11-20T14:42:16;99211.86;;;20.53;49.31
65394;BME280;52002;49.760;6.512;2022-11-20T14:44:44;99206.13;;;20.52;49.36
65394;BME280;52002;49.760;6.512;2022-11-20T14:47:13;99203.42;;;20.52;49.40
65394;BME280;52002;49.760;6.512;2022-11-20T14:49:43;99199.45;;;20.54;49.44
65394;BME280;52002;49.760;6.512;2022-11-20T14:52:18;99191.83;;;20.54;49.45
65394;BME280;52002;49.760;6.512;2022-11-20T14:54:56;99191.32;;;20.54;49.46
65394;BME280;52002;49.760;6.512;2022-11-20T14:57:30;99185.36;;;20.55;49.49
65394;BME280;52002;49.760;6.512;2022-11-20T15:02:51;99170.98;;;20.54;49.53
65394;BME280;52002;49.760;6.512;2022-11-20T15:05:20;99166.07;;;20.54;49.58